sensor_id;sensor_type;location;lat;lon;timestamp;temperature;humidity
16517;DHT22;8371;52.272;9.746;2023-07-29T00:01:59;22.00;65.50
16517;DHT22;8371;52.272;9.746;2023-07-29T00:04:24;21.90;65.50
16517;DHT22;8371;52.272;9.746;2023-07-29T00:06:50;22.00;65.50
16517;DHT22;8371;52.272;9.746;2023-07-29T00:09:16;21.90;65.50
16517;DHT22;8371;52.272;9.746;2023-07-29T00:11:41;21.90;65.60
16517;DHT22;8371;52.272;9.746;2023-07-29T00:14:07;21.90;65.70
16517;DHT22;8371;52.272;9.746;2023-07-29T00:16:33;21.90;65.80
16517;DHT22;8371;52.272;9.746;2023-07-29T00:18:58;21.80;65.80
16517;DHT22;8371;52.272;9.746;2023-07-29T00:21:24;21.80;65.80
16517;DHT22;8371;52.272;9.746;2023-07-29T00:23:50;21.70;65.80
16517;DHT22;8371;52.272;9.746;2023-07-29T00:26:15;21.70;65.90
16517;DHT22;8371;52.272;9.746;2023-07-29T00:28:41;21.60;66.00
16517;DHT22;8371;52.272;9.746;2023-07-29T00:31:07;21.50;66.10
16517;DHT22;8371;52.272;9.746;2023-07-29T00:33:33;21.50;66.30
16517;DHT22;8371;52.272;9.746;2023-07-29T00:35:58;21.40;66.40
16517;DHT22;8371;52.272;9.746;2023-07-29T00:38:26;21.40;66.40
16517;DHT22;8371;52.272;9.746;2023-07-29T00:40:52;21.30;66.60
16517;DHT22;8371;52.272;9.746;2023-07-29T00:43:17;21.30;66.80
16517;DHT22;8371;52.272;9.746;2023-07-29T00:45:44;21.30;67.00
16517;DHT22;8371;52.272;9.746;2023-07-29T00:48:10;21.20;67.00
16517;DHT22;8371;52.272;9.746;2023-07-29T00:50:36;21.20;67.20
16517;DHT22;8371;52.272;9.746;2023-07-29T00:53:02;21.20;67.30
16517;DHT22;8371;52.272;9.746;2023-07-29T00:55:28;21.10;67.30
16517;DHT22;8371;52.272;9.746;2023-07-29T00:57:54;21.10;67.60
16517;DHT22;8371;52.272;9.746;2023-07-29T01:00:21;21.10;67.70
16517;DHT22;8371;52.272;9.746;2023-07-29T01:02:46;21.00;67.80
16517;DHT22;8371;52.272;9.746;2023-07-29T01:05:14;21.00;67.90
16517;DHT22;8371;52.272;9.746;2023-07-29T01:08:06;20.90;67.90
16517;DHT22;8371;52.272;9.746;2023-07-29T01:10:40;20.90;68.10
16517;DHT22;8371;52.272;9.746;2023-07-29T01:13:24;20.80;68.10
16517;DHT22;8371;52.272;9.746;2023-07-29T01:16:04;20.80;68.30
16517;DHT22;8371;52.272;9.746;2023-07-29T01:18:31;20.70;68.50
16517;DHT22;8371;52.272;9.746;2023-07-29T01:21:00;20.70;68.70
16517;DHT22;8371;52.272;9.746;2023-07-29T01:23:36;20.60;68.90
16517;DHT22;8371;52.272;9.746;2023-07-29T01:26:02;20.60;69.10
16517;DHT22;8371;52.272;9.746;2023-07-29T01:28:28;20.60;69.30
16517;DHT22;8371;52.272;9.746;2023-07-29T01:31:27;20.60;69.40
16517;DHT22;8371;52.272;9.746;2023-07-29T01:34:06;20.50;69.50
16517;DHT22;8371;52.272;9.746;2023-07-29T01:36:32;20.50;69.60
16517;DHT22;8371;52.272;9.746;2023-07-29T01:39:01;20.50;69.70
16517;DHT22;8371;52.272;9.746;2023-07-29T01:41:27;20.50;70.00
16517;DHT22;8371;52.272;9.746;2023-07-29T01:43:54;20.50;70.20
16517;DHT22;8371;52.272;9.746;2023-07-29T01:46:21;20.50;70.40
16517;DHT22;8371;52.272;9.746;2023-07-29T01:48:46;20.50;70.50
16517;DHT22;8371;52.272;9.746;2023-07-29T01:51:12;20.50;70.50
16517;DHT22;8371;52.272;9.746;2023-07-29T01:53:38;20.60;70.80
16517;DHT22;8371;52.272;9.746;2023-07-29T01:56:04;20.60;71.00
16517;DHT22;8371;52.272;9.746;2023-07-29T01:58:30;20.60;71.10
16517;DHT22;8371;52.272;9.746;2023-07-29T02:00:55;20.60;71.30
16517;DHT22;8371;52.272;9.746;2023-07-29T02:03:21;20.70;71.40
16517;DHT22;8371;52.272;9.746;2023-07-29T02:05:47;20.70;71.50
16517;DHT22;8371;52.272;9.746;2023-07-29T02:08:12;20.70;71.60
16517;DHT22;8371;52.272;9.746;2023-07-29T02:10:39;20.80;71.70
16517;DHT22;8371;52.272;9.746;2023-07-29T02:13:05;20.90;71.80
16517;DHT22;8371;52.272;9.746;2023-07-29T02:15:30;20.80;71.80
16517;DHT22;8371;52.272;9.746;2023-07-29T02:17:56;20.90;71.80
16517;DHT22;8371;52.272;9.746;2023-07-29T02:20:22;21.00;71.90
16517;DHT22;8371;52.272;9.746;2023-07-29T02:22:47;21.00;71.90
16517;DHT22;8371;52.272;9.746;2023-07-29T02:25:14;21.10;72.00
16517;DHT22;8371;52.272;9.746;2023-07-29T02:27:39;21.10;71.90
16517;DHT22;8371;52.272;9.746;2023-07-29T02:30:06;21.10;71.90
16517;DHT22;8371;52.272;9.746;2023-07-29T02:32:32;21.10;72.00
16517;DHT22;8371;52.272;9.746;2023-07-29T02:34:57;21.20;72.00
16517;DHT22;8371;52.272;9.746;2023-07-29T02:37:23;21.20;72.00
16517;DHT22;8371;52.272;9.746;2023-07-29T02:39:49;21.20;72.00
16517;DHT22;8371;52.272;9.746;2023-07-29T02:42:14;21.30;72.10
16517;DHT22;8371;52.272;9.746;2023-07-29T02:44:40;21.30;72.20
16517;DHT22;8371;52.272;9.746;2023-07-29T02:47:06;21.30;72.20
16517;DHT22;8371;52.272;9.746;2023-07-29T02:49:32;21.30;72.10
16517;DHT22;8371;52.272;9.746;2023-07-29T02:51:58;21.40;72.20
16517;DHT22;8371;52.272;9.746;2023-07-29T02:54:23;21.40;72.20
16517;DHT22;8371;52.272;9.746;2023-07-29T02:56:50;21.40;72.20
16517;DHT22;8371;52.272;9.746;2023-07-29T02:59:15;21.40;72.30
16517;DHT22;8371;52.272;9.746;2023-07-29T03:01:41;21.40;72.20
16517;DHT22;8371;52.272;9.746;2023-07-29T03:04:07;21.50;72.40
16517;DHT22;8371;52.272;9.746;2023-07-29T03:06:33;21.40;72.20
16517;DHT22;8371;52.272;9.746;2023-07-29T03:08:59;21.50;72.40
16517;DHT22;8371;52.272;9.746;2023-07-29T03:11:25;21.40;72.40
16517;DHT22;8371;52.272;9.746;2023-07-29T03:13:50;21.50;72.30
16517;DHT22;8371;52.272;9.746;2023-07-29T03:16:17;21.50;72.30
16517;DHT22;8371;52.272;9.746;2023-07-29T03:18:43;21.50;72.20
16517;DHT22;8371;52.272;9.746;2023-07-29T03:21:10;21.50;72.30
16517;DHT22;8371;52.272;9.746;2023-07-29T03:23:36;21.50;73.20
16517;DHT22;8371;52.272;9.746;2023-07-29T03:26:03;21.50;72.30
16517;DHT22;8371;52.272;9.746;2023-07-29T03:28:38;21.50;72.20
16517;DHT22;8371;52.272;9.746;2023-07-29T03:31:04;21.50;72.10
16517;DHT22;8371;52.272;9.746;2023-07-29T03:33:30;21.50;72.10
16517;DHT22;8371;52.272;9.746;2023-07-29T03:35:59;21.50;72.30
16517;DHT22;8371;52.272;9.746;2023-07-29T03:38:25;21.50;72.50
16517;DHT22;8371;52.272;9.746;2023-07-29T03:40:51;21.50;72.80
16517;DHT22;8371;52.272;9.746;2023-07-29T03:43:17;21.50;72.70
16517;DHT22;8371;52.272;9.746;2023-07-29T03:45:43;21.50;72.80
16517;DHT22;8371;52.272;9.746;2023-07-29T03:48:08;21.50;72.90
16517;DHT22;8371;52.272;9.746;2023-07-29T03:50:35;21.50;72.80
16517;DHT22;8371;52.272;9.746;2023-07-29T03:53:05;21.50;72.80
16517;DHT22;8371;52.272;9.746;2023-07-29T03:55:31;21.50;72.90
16517;DHT22;8371;52.272;9.746;2023-07-29T03:57:58;21.50;73.10
16517;DHT22;8371;52.272;9.746;2023-07-29T04:00:24;21.50;73.20
16517;DHT22;8371;52.272;9.746;2023-07-29T04:02:50;21.50;73.20
16517;DHT22;8371;52.272;9.746;2023-07-29T04:05:16;21.50;73.30
16517;DHT22;8371;52.272;9.746;2023-07-29T04:07:41;21.60;73.40
16517;DHT22;8371;52.272;9.746;2023-07-29T04:10:07;21.60;73.40
16517;DHT22;8371;52.272;9.746;2023-07-29T04:12:33;21.60;73.50
16517;DHT22;8371;52.272;9.746;2023-07-29T04:14:59;21.60;73.50
16517;DHT22;8371;52.272;9.746;2023-07-29T04:17:25;21.60;73.60
16517;DHT22;8371;52.272;9.746;2023-07-29T04:19:51;21.60;73.50
16517;DHT22;8371;52.272;9.746;2023-07-29T04:22:16;21.60;73.80
16517;DHT22;8371;52.272;9.746;2023-07-29T04:24:42;21.60;73.50
16517;DHT22;8371;52.272;9.746;2023-07-29T04:27:08;21.60;73.60
16517;DHT22;8371;52.272;9.746;2023-07-29T04:29:34;21.60;73.60
16517;DHT22;8371;52.272;9.746;2023-07-29T04:32:03;21.60;73.60
16517;DHT22;8371;52.272;9.746;2023-07-29T04:34:29;21.60;74.60
16517;DHT22;8371;52.272;9.746;2023-07-29T04:36:54;21.70;73.80
16517;DHT22;8371;52.272;9.746;2023-07-29T04:39:20;21.70;73.90
16517;DHT22;8371;52.272;9.746;2023-07-29T04:41:46;21.70;73.90
16517;DHT22;8371;52.272;9.746;2023-07-29T04:44:12;21.70;74.00
16517;DHT22;8371;52.272;9.746;2023-07-29T04:46:37;21.70;74.10
16517;DHT22;8371;52.272;9.746;2023-07-29T04:49:04;21.60;73.90
16517;DHT22;8371;52.272;9.746;2023-07-29T04:51:30;21.70;73.30
16517;DHT22;8371;52.272;9.746;2023-07-29T04:53:57;21.70;74.10
16517;DHT22;8371;52.272;9.746;2023-07-29T04:56:23;21.70;74.10
16517;DHT22;8371;52.272;9.746;2023-07-29T04:58:49;21.70;74.20
16517;DHT22;8371;52.272;9.746;2023-07-29T05:01:15;21.70;74.20
16517;DHT22;8371;52.272;9.746;2023-07-29T05:03:40;21.70;74.40
16517;DHT22;8371;52.272;9.746;2023-07-29T05:06:06;21.80;74.50
16517;DHT22;8371;52.272;9.746;2023-07-29T05:08:32;21.80;74.60
16517;DHT22;8371;52.272;9.746;2023-07-29T05:10:58;21.80;75.40
16517;DHT22;8371;52.272;9.746;2023-07-29T05:13:23;21.80;74.80
16517;DHT22;8371;52.272;9.746;2023-07-29T05:15:49;21.80;75.00
16517;DHT22;8371;52.272;9.746;2023-07-29T05:18:16;21.90;75.00
16517;DHT22;8371;52.272;9.746;2023-07-29T05:20:42;21.90;75.10
16517;DHT22;8371;52.272;9.746;2023-07-29T05:23:08;21.90;75.20
16517;DHT22;8371;52.272;9.746;2023-07-29T05:25:34;21.90;75.20
16517;DHT22;8371;52.272;9.746;2023-07-29T05:28:03;21.90;75.40
16517;DHT22;8371;52.272;9.746;2023-07-29T05:30:29;21.90;75.40
16517;DHT22;8371;52.272;9.746;2023-07-29T05:33:00;21.90;75.50
16517;DHT22;8371;52.272;9.746;2023-07-29T05:35:26;22.00;75.60
16517;DHT22;8371;52.272;9.746;2023-07-29T05:37:52;22.00;75.60
16517;DHT22;8371;52.272;9.746;2023-07-29T05:40:18;22.00;75.60
16517;DHT22;8371;52.272;9.746;2023-07-29T05:42:44;22.00;75.70
16517;DHT22;8371;52.272;9.746;2023-07-29T05:45:10;22.00;75.80
16517;DHT22;8371;52.272;9.746;2023-07-29T05:47:37;22.00;76.10
16517;DHT22;8371;52.272;9.746;2023-07-29T05:50:03;22.10;76.30
16517;DHT22;8371;52.272;9.746;2023-07-29T05:52:30;22.20;76.60
16517;DHT22;8371;52.272;9.746;2023-07-29T05:54:56;22.20;76.70
16517;DHT22;8371;52.272;9.746;2023-07-29T05:57:22;22.30;76.90
16517;DHT22;8371;52.272;9.746;2023-07-29T05:59:48;22.40;76.60
16517;DHT22;8371;52.272;9.746;2023-07-29T06:02:13;22.40;77.00
16517;DHT22;8371;52.272;9.746;2023-07-29T06:04:39;22.50;76.40
16517;DHT22;8371;52.272;9.746;2023-07-29T06:07:05;22.60;76.40
16517;DHT22;8371;52.272;9.746;2023-07-29T06:09:31;22.60;76.30
16517;DHT22;8371;52.272;9.746;2023-07-29T06:11:57;22.70;76.40
16517;DHT22;8371;52.272;9.746;2023-07-29T06:14:23;22.70;76.10
16517;DHT22;8371;52.272;9.746;2023-07-29T06:16:49;22.80;76.20
16517;DHT22;8371;52.272;9.746;2023-07-29T06:19:14;22.80;76.10
16517;DHT22;8371;52.272;9.746;2023-07-29T06:21:40;22.80;76.00
16517;DHT22;8371;52.272;9.746;2023-07-29T06:24:05;22.90;76.20
16517;DHT22;8371;52.272;9.746;2023-07-29T06:26:31;22.80;76.40
16517;DHT22;8371;52.272;9.746;2023-07-29T06:28:57;22.90;76.70
16517;DHT22;8371;52.272;9.746;2023-07-29T06:31:23;23.00;76.90
16517;DHT22;8371;52.272;9.746;2023-07-29T06:33:52;23.00;77.00
16517;DHT22;8371;52.272;9.746;2023-07-29T06:36:20;23.00;77.00
16517;DHT22;8371;52.272;9.746;2023-07-29T06:38:45;23.10;77.20
16517;DHT22;8371;52.272;9.746;2023-07-29T06:41:11;23.20;77.50
16517;DHT22;8371;52.272;9.746;2023-07-29T06:43:37;23.20;77.60
16517;DHT22;8371;52.272;9.746;2023-07-29T06:46:03;23.40;77.90
16517;DHT22;8371;52.272;9.746;2023-07-29T06:48:29;23.40;77.90
16517;DHT22;8371;52.272;9.746;2023-07-29T06:50:54;23.60;77.80
16517;DHT22;8371;52.272;9.746;2023-07-29T06:53:20;23.70;77.60
16517;DHT22;8371;52.272;9.746;2023-07-29T06:55:46;23.80;77.70
16517;DHT22;8371;52.272;9.746;2023-07-29T06:58:12;23.90;77.60
16517;DHT22;8371;52.272;9.746;2023-07-29T07:00:38;24.00;77.60
16517;DHT22;8371;52.272;9.746;2023-07-29T07:03:04;24.20;77.60
16517;DHT22;8371;52.272;9.746;2023-07-29T07:05:29;24.30;77.50
16517;DHT22;8371;52.272;9.746;2023-07-29T07:07:55;24.40;77.40
16517;DHT22;8371;52.272;9.746;2023-07-29T07:10:21;24.60;77.00
16517;DHT22;8371;52.272;9.746;2023-07-29T07:12:46;24.70;76.70
16517;DHT22;8371;52.272;9.746;2023-07-29T07:15:12;24.80;76.30
16517;DHT22;8371;52.272;9.746;2023-07-29T07:17:38;24.80;75.80
16517;DHT22;8371;52.272;9.746;2023-07-29T07:20:04;24.90;75.50
16517;DHT22;8371;52.272;9.746;2023-07-29T07:22:30;24.90;75.30
16517;DHT22;8371;52.272;9.746;2023-07-29T07:24:56;25.00;75.20
16517;DHT22;8371;52.272;9.746;2023-07-29T07:27:21;24.90;75.00
16517;DHT22;8371;52.272;9.746;2023-07-29T07:29:47;24.90;75.00
16517;DHT22;8371;52.272;9.746;2023-07-29T07:32:13;25.00;75.00
16517;DHT22;8371;52.272;9.746;2023-07-29T07:34:38;25.00;75.30
16517;DHT22;8371;52.272;9.746;2023-07-29T07:37:04;25.00;75.40
16517;DHT22;8371;52.272;9.746;2023-07-29T07:39:31;25.00;75.30
16517;DHT22;8371;52.272;9.746;2023-07-29T07:41:57;25.10;75.40
16517;DHT22;8371;52.272;9.746;2023-07-29T07:44:23;25.10;75.40
16517;DHT22;8371;52.272;9.746;2023-07-29T07:46:50;25.20;75.40
16517;DHT22;8371;52.272;9.746;2023-07-29T07:49:16;25.30;75.30
16517;DHT22;8371;52.272;9.746;2023-07-29T07:51:43;25.40;75.30
16517;DHT22;8371;52.272;9.746;2023-07-29T07:54:09;25.40;75.20
16517;DHT22;8371;52.272;9.746;2023-07-29T07:56:35;25.60;75.30
16517;DHT22;8371;52.272;9.746;2023-07-29T07:59:00;25.60;76.00
16517;DHT22;8371;52.272;9.746;2023-07-29T08:01:26;25.70;75.20
16517;DHT22;8371;52.272;9.746;2023-07-29T08:03:52;25.80;75.10
16517;DHT22;8371;52.272;9.746;2023-07-29T08:06:17;25.90;75.10
16517;DHT22;8371;52.272;9.746;2023-07-29T08:08:43;26.10;75.10
16517;DHT22;8371;52.272;9.746;2023-07-29T08:11:09;26.30;74.90
16517;DHT22;8371;52.272;9.746;2023-07-29T08:13:34;26.30;74.70
16517;DHT22;8371;52.272;9.746;2023-07-29T08:16:00;26.60;74.70
16517;DHT22;8371;52.272;9.746;2023-07-29T08:18:26;26.70;74.50
16517;DHT22;8371;52.272;9.746;2023-07-29T08:20:57;26.90;74.20
16517;DHT22;8371;52.272;9.746;2023-07-29T08:23:21;27.00;73.80
16517;DHT22;8371;52.272;9.746;2023-07-29T08:25:52;27.10;73.50
16517;DHT22;8371;52.272;9.746;2023-07-29T08:28:19;27.30;72.30
16517;DHT22;8371;52.272;9.746;2023-07-29T08:30:45;27.30;72.60
16517;DHT22;8371;52.272;9.746;2023-07-29T08:33:10;27.30;71.80
16517;DHT22;8371;52.272;9.746;2023-07-29T08:35:36;27.40;71.40
16517;DHT22;8371;52.272;9.746;2023-07-29T08:38:02;27.40;71.20
16517;DHT22;8371;52.272;9.746;2023-07-29T08:40:29;27.30;70.60
16517;DHT22;8371;52.272;9.746;2023-07-29T08:42:56;27.30;70.30
16517;DHT22;8371;52.272;9.746;2023-07-29T08:45:24;27.20;70.30
16517;DHT22;8371;52.272;9.746;2023-07-29T08:47:53;27.00;70.20
16517;DHT22;8371;52.272;9.746;2023-07-29T08:50:20;26.90;70.40
16517;DHT22;8371;52.272;9.746;2023-07-29T08:52:48;26.80;70.60
16517;DHT22;8371;52.272;9.746;2023-07-29T08:55:14;26.80;70.70
16517;DHT22;8371;52.272;9.746;2023-07-29T08:57:40;26.70;70.50
16517;DHT22;8371;52.272;9.746;2023-07-29T09:00:07;26.60;70.50
16517;DHT22;8371;52.272;9.746;2023-07-29T09:02:33;26.60;70.60
16517;DHT22;8371;52.272;9.746;2023-07-29T09:04:59;26.50;70.60
16517;DHT22;8371;52.272;9.746;2023-07-29T09:07:25;26.40;70.60
16517;DHT22;8371;52.272;9.746;2023-07-29T09:09:51;26.30;70.50
16517;DHT22;8371;52.272;9.746;2023-07-29T09:12:17;26.30;70.70
16517;DHT22;8371;52.272;9.746;2023-07-29T09:14:42;26.30;70.90
16517;DHT22;8371;52.272;9.746;2023-07-29T09:17:08;26.30;71.20
16517;DHT22;8371;52.272;9.746;2023-07-29T09:19:35;26.20;71.60
16517;DHT22;8371;52.272;9.746;2023-07-29T09:22:01;26.30;71.90
16517;DHT22;8371;52.272;9.746;2023-07-29T09:24:27;26.40;72.30
16517;DHT22;8371;52.272;9.746;2023-07-29T09:26:55;26.40;72.20
16517;DHT22;8371;52.272;9.746;2023-07-29T09:29:27;26.50;72.20
16517;DHT22;8371;52.272;9.746;2023-07-29T09:31:53;26.70;72.30
16517;DHT22;8371;52.272;9.746;2023-07-29T09:34:19;26.90;72.50
16517;DHT22;8371;52.272;9.746;2023-07-29T09:36:44;27.00;72.60
16517;DHT22;8371;52.272;9.746;2023-07-29T09:39:12;27.20;72.10
16517;DHT22;8371;52.272;9.746;2023-07-29T09:41:40;27.30;72.00
16517;DHT22;8371;52.272;9.746;2023-07-29T09:44:06;27.50;71.70
16517;DHT22;8371;52.272;9.746;2023-07-29T09:46:35;27.60;71.40
16517;DHT22;8371;52.272;9.746;2023-07-29T09:49:04;27.70;70.80
16517;DHT22;8371;52.272;9.746;2023-07-29T09:51:30;27.80;70.70
16517;DHT22;8371;52.272;9.746;2023-07-29T09:53:56;27.80;70.40
16517;DHT22;8371;52.272;9.746;2023-07-29T09:56:25;27.90;70.30
16517;DHT22;8371;52.272;9.746;2023-07-29T09:58:52;28.00;70.00
16517;DHT22;8371;52.272;9.746;2023-07-29T10:01:18;28.00;70.50
16517;DHT22;8371;52.272;9.746;2023-07-29T10:03:44;28.10;70.20
16517;DHT22;8371;52.272;9.746;2023-07-29T10:06:11;28.20;70.10
16517;DHT22;8371;52.272;9.746;2023-07-29T10:08:36;28.30;70.00
16517;DHT22;8371;52.272;9.746;2023-07-29T10:11:07;28.30;69.10
16517;DHT22;8371;52.272;9.746;2023-07-29T10:13:33;28.40;68.60
16517;DHT22;8371;52.272;9.746;2023-07-29T10:15:59;28.50;68.30
16517;DHT22;8371;52.272;9.746;2023-07-29T10:18:27;28.60;68.20
16517;DHT22;8371;52.272;9.746;2023-07-29T10:20:54;28.60;68.10
16517;DHT22;8371;52.272;9.746;2023-07-29T10:23:22;28.70;67.70
16517;DHT22;8371;52.272;9.746;2023-07-29T10:25:54;28.70;67.50
16517;DHT22;8371;52.272;9.746;2023-07-29T10:28:20;28.80;67.40
16517;DHT22;8371;52.272;9.746;2023-07-29T10:30:47;28.90;67.30
16517;DHT22;8371;52.272;9.746;2023-07-29T10:33:13;29.10;67.10
16517;DHT22;8371;52.272;9.746;2023-07-29T10:35:39;29.30;66.80
16517;DHT22;8371;52.272;9.746;2023-07-29T10:38:06;29.50;66.40
16517;DHT22;8371;52.272;9.746;2023-07-29T10:40:50;29.60;65.20
16517;DHT22;8371;52.272;9.746;2023-07-29T10:43:28;29.70;64.10
16517;DHT22;8371;52.272;9.746;2023-07-29T10:45:55;29.80;64.70
16517;DHT22;8371;52.272;9.746;2023-07-29T10:51:29;30.10;64.30
16517;DHT22;8371;52.272;9.746;2023-07-29T10:53:57;30.20;63.30
16517;DHT22;8371;52.272;9.746;2023-07-29T10:56:36;30.40;62.90
16517;DHT22;8371;52.272;9.746;2023-07-29T11:01:57;30.60;61.20
16517;DHT22;8371;52.272;9.746;2023-07-29T11:04:30;30.60;61.70
16517;DHT22;8371;52.272;9.746;2023-07-29T11:12:40;30.80;59.70
16517;DHT22;8371;52.272;9.746;2023-07-29T11:15:15;30.90;59.80
16517;DHT22;8371;52.272;9.746;2023-07-29T11:17:45;30.80;59.50
16517;DHT22;8371;52.272;9.746;2023-07-29T11:20:12;30.90;59.30
16517;DHT22;8371;52.272;9.746;2023-07-29T11:22:38;30.90;58.90
16517;DHT22;8371;52.272;9.746;2023-07-29T11:25:05;31.00;58.50
16517;DHT22;8371;52.272;9.746;2023-07-29T11:27:32;31.10;58.60
16517;DHT22;8371;52.272;9.746;2023-07-29T11:29:59;31.20;58.20
16517;DHT22;8371;52.272;9.746;2023-07-29T11:32:26;31.30;57.00
16517;DHT22;8371;52.272;9.746;2023-07-29T11:34:52;31.40;57.30
16517;DHT22;8371;52.272;9.746;2023-07-29T11:37:17;31.40;57.00
16517;DHT22;8371;52.272;9.746;2023-07-29T11:39:46;31.60;56.50
16517;DHT22;8371;52.272;9.746;2023-07-29T11:42:15;31.70;56.50
16517;DHT22;8371;52.272;9.746;2023-07-29T11:44:41;31.90;56.60
16517;DHT22;8371;52.272;9.746;2023-07-29T11:47:07;32.00;56.20
16517;DHT22;8371;52.272;9.746;2023-07-29T11:49:34;32.20;56.10
16517;DHT22;8371;52.272;9.746;2023-07-29T11:52:01;32.40;55.20
16517;DHT22;8371;52.272;9.746;2023-07-29T11:54:27;32.50;54.30
16517;DHT22;8371;52.272;9.746;2023-07-29T11:56:53;32.70;54.30
16517;DHT22;8371;52.272;9.746;2023-07-29T11:59:19;32.80;53.10
16517;DHT22;8371;52.272;9.746;2023-07-29T12:01:47;32.90;52.10
16517;DHT22;8371;52.272;9.746;2023-07-29T12:04:13;32.90;52.40
16517;DHT22;8371;52.272;9.746;2023-07-29T12:06:40;33.00;52.20
16517;DHT22;8371;52.272;9.746;2023-07-29T12:09:06;33.00;52.10
16517;DHT22;8371;52.272;9.746;2023-07-29T12:11:33;33.00;51.80
16517;DHT22;8371;52.272;9.746;2023-07-29T12:14:02;33.00;51.60
16517;DHT22;8371;52.272;9.746;2023-07-29T12:16:28;33.10;51.50
16517;DHT22;8371;52.272;9.746;2023-07-29T12:18:56;33.10;51.20
16517;DHT22;8371;52.272;9.746;2023-07-29T12:21:23;33.10;51.00
16517;DHT22;8371;52.272;9.746;2023-07-29T12:23:50;33.10;50.30
16517;DHT22;8371;52.272;9.746;2023-07-29T12:26:16;33.10;50.00
16517;DHT22;8371;52.272;9.746;2023-07-29T12:28:48;33.10;49.70
16517;DHT22;8371;52.272;9.746;2023-07-29T12:31:11;33.20;49.60
16517;DHT22;8371;52.272;9.746;2023-07-29T12:33:37;33.10;49.40
16517;DHT22;8371;52.272;9.746;2023-07-29T12:36:07;33.00;49.00
16517;DHT22;8371;52.272;9.746;2023-07-29T12:38:33;32.90;48.40
16517;DHT22;8371;52.272;9.746;2023-07-29T12:40:59;32.90;48.50
16517;DHT22;8371;52.272;9.746;2023-07-29T12:43:25;32.70;48.20
16517;DHT22;8371;52.272;9.746;2023-07-29T12:45:51;32.70;47.80
16517;DHT22;8371;52.272;9.746;2023-07-29T12:48:17;32.70;47.70
16517;DHT22;8371;52.272;9.746;2023-07-29T12:50:43;32.60;48.00
16517;DHT22;8371;52.272;9.746;2023-07-29T12:53:09;32.60;47.80
16517;DHT22;8371;52.272;9.746;2023-07-29T12:55:38;32.60;47.30
16517;DHT22;8371;52.272;9.746;2023-07-29T12:58:04;32.60;47.80
16517;DHT22;8371;52.272;9.746;2023-07-29T13:00:30;32.60;48.10
16517;DHT22;8371;52.272;9.746;2023-07-29T13:02:56;32.50;47.70
16517;DHT22;8371;52.272;9.746;2023-07-29T13:05:22;32.70;48.20
16517;DHT22;8371;52.272;9.746;2023-07-29T13:07:47;32.90;47.90
16517;DHT22;8371;52.272;9.746;2023-07-29T13:10:13;33.00;47.30
16517;DHT22;8371;52.272;9.746;2023-07-29T13:12:39;33.10;47.10
16517;DHT22;8371;52.272;9.746;2023-07-29T13:15:06;33.10;47.30
16517;DHT22;8371;52.272;9.746;2023-07-29T13:17:33;33.10;46.60
16517;DHT22;8371;52.272;9.746;2023-07-29T13:19:59;33.10;46.90
16517;DHT22;8371;52.272;9.746;2023-07-29T13:22:25;33.10;46.30
16517;DHT22;8371;52.272;9.746;2023-07-29T13:24:50;33.20;46.20
16517;DHT22;8371;52.272;9.746;2023-07-29T13:27:16;33.20;45.40
16517;DHT22;8371;52.272;9.746;2023-07-29T13:29:42;33.20;45.10
16517;DHT22;8371;52.272;9.746;2023-07-29T13:32:09;33.20;45.30
16517;DHT22;8371;52.272;9.746;2023-07-29T13:34:34;33.10;44.70
16517;DHT22;8371;52.272;9.746;2023-07-29T13:37:00;33.10;44.40
16517;DHT22;8371;52.272;9.746;2023-07-29T13:39:26;33.00;45.20
16517;DHT22;8371;52.272;9.746;2023-07-29T13:41:53;33.00;45.50
16517;DHT22;8371;52.272;9.746;2023-07-29T13:44:19;33.00;45.50
16517;DHT22;8371;52.272;9.746;2023-07-29T13:46:45;33.00;45.00
16517;DHT22;8371;52.272;9.746;2023-07-29T13:49:10;32.90;44.80
16517;DHT22;8371;52.272;9.746;2023-07-29T13:51:36;32.90;44.90
16517;DHT22;8371;52.272;9.746;2023-07-29T13:54:02;32.80;44.70
16517;DHT22;8371;52.272;9.746;2023-07-29T13:56:28;32.70;44.60
16517;DHT22;8371;52.272;9.746;2023-07-29T13:58:53;32.70;44.90
16517;DHT22;8371;52.272;9.746;2023-07-29T14:01:19;32.60;45.10
16517;DHT22;8371;52.272;9.746;2023-07-29T14:03:45;32.70;45.50
16517;DHT22;8371;52.272;9.746;2023-07-29T14:06:10;32.60;45.20
16517;DHT22;8371;52.272;9.746;2023-07-29T14:08:36;32.70;45.20
16517;DHT22;8371;52.272;9.746;2023-07-29T14:11:02;32.80;45.20
16517;DHT22;8371;52.272;9.746;2023-07-29T14:13:27;32.80;45.20
16517;DHT22;8371;52.272;9.746;2023-07-29T14:15:54;32.80;45.00
16517;DHT22;8371;52.272;9.746;2023-07-29T14:18:19;32.90;45.30
16517;DHT22;8371;52.272;9.746;2023-07-29T14:20:45;33.00;45.20
16517;DHT22;8371;52.272;9.746;2023-07-29T14:23:11;33.10;44.60
16517;DHT22;8371;52.272;9.746;2023-07-29T14:25:37;33.20;44.30
16517;DHT22;8371;52.272;9.746;2023-07-29T14:28:02;33.30;44.00
16517;DHT22;8371;52.272;9.746;2023-07-29T14:30:28;33.20;43.60
16517;DHT22;8371;52.272;9.746;2023-07-29T14:32:54;33.20;43.40
16517;DHT22;8371;52.272;9.746;2023-07-29T14:35:20;33.10;43.70
16517;DHT22;8371;52.272;9.746;2023-07-29T14:37:45;33.10;43.90
16517;DHT22;8371;52.272;9.746;2023-07-29T14:40:11;33.00;43.80
16517;DHT22;8371;52.272;9.746;2023-07-29T14:42:36;33.00;43.90
16517;DHT22;8371;52.272;9.746;2023-07-29T14:45:02;32.90;43.60
16517;DHT22;8371;52.272;9.746;2023-07-29T14:47:28;32.80;43.00
16517;DHT22;8371;52.272;9.746;2023-07-29T14:49:56;32.70;43.10
16517;DHT22;8371;52.272;9.746;2023-07-29T14:52:21;32.50;43.30
16517;DHT22;8371;52.272;9.746;2023-07-29T14:54:47;32.50;43.40
16517;DHT22;8371;52.272;9.746;2023-07-29T14:57:13;32.30;43.20
16517;DHT22;8371;52.272;9.746;2023-07-29T14:59:38;32.20;43.60
16517;DHT22;8371;52.272;9.746;2023-07-29T15:02:05;32.20;44.10
16517;DHT22;8371;52.272;9.746;2023-07-29T15:04:31;32.10;44.20
16517;DHT22;8371;52.272;9.746;2023-07-29T15:06:57;32.10;43.90
16517;DHT22;8371;52.272;9.746;2023-07-29T15:09:23;32.10;44.00
16517;DHT22;8371;52.272;9.746;2023-07-29T15:11:49;32.20;44.20
16517;DHT22;8371;52.272;9.746;2023-07-29T15:14:14;32.00;44.00
16517;DHT22;8371;52.272;9.746;2023-07-29T15:16:41;32.20;43.80
16517;DHT22;8371;52.272;9.746;2023-07-29T15:19:06;32.20;43.60
16517;DHT22;8371;52.272;9.746;2023-07-29T15:21:32;32.30;43.90
16517;DHT22;8371;52.272;9.746;2023-07-29T15:24:00;32.30;43.90
16517;DHT22;8371;52.272;9.746;2023-07-29T15:26:26;32.40;43.70
16517;DHT22;8371;52.272;9.746;2023-07-29T15:28:52;32.50;43.70
16517;DHT22;8371;52.272;9.746;2023-07-29T15:31:17;32.50;43.20
16517;DHT22;8371;52.272;9.746;2023-07-29T15:33:43;32.50;43.30
16517;DHT22;8371;52.272;9.746;2023-07-29T15:36:09;32.60;43.20
16517;DHT22;8371;52.272;9.746;2023-07-29T15:38:34;32.50;43.10
16517;DHT22;8371;52.272;9.746;2023-07-29T15:41:00;32.50;42.90
16517;DHT22;8371;52.272;9.746;2023-07-29T15:43:26;32.50;42.90
16517;DHT22;8371;52.272;9.746;2023-07-29T15:45:52;32.50;42.70
16517;DHT22;8371;52.272;9.746;2023-07-29T15:48:18;32.50;42.90
16517;DHT22;8371;52.272;9.746;2023-07-29T15:50:44;32.50;42.80
16517;DHT22;8371;52.272;9.746;2023-07-29T15:53:10;32.50;42.90